Paddy Guidry — WTG3900 — position and weather

sailwx.info

Track history (hours):
 
Tides and Currents Weather Stations Pressure Air Temp Water Temp Dewpoint Dewpoint Depression Visibility Wind Speed Wind Dir Waves Ship Positions

Paddy Guidry

Owner: CAPTAIN TIMMY INC, GALLIANO, LA. More information available from US FCC via Universal Licensing System and Coast Guard Vessel Documentation Center.

Last reported at 2016-May-24 15:29 UTC. Time now 2016-May-24 15:49 UTC.
Position N 29°30' W 090°51'.

; draft 1.5 m.

Type: Tug. MMSI: 366998310.

Date/timePositionNaut miles runAvg speedWind from/ knotsBaromVisibWave heightAir tempDewpointWater temp
2016-May-24 15:29N 29°30' W 090°51'0 0.1
2016-May-24 14:33N 29°30' W 090°51'0 0.0
2016-May-24 13:32N 29°30' W 090°51'3 0.1
2016-May-23 14:15N 29°32' W 090°53'1 1.8
2016-May-23 13:29N 29°32' W 090°52'1 1.5
2016-May-23 12:33N 29°30' W 090°51'0 0.0
2016-May-23 11:33N 29°30' W 090°51'0 0.0
2016-May-23 10:26N 29°30' W 090°51'0 0.0
2016-May-23 09:31N 29°30' W 090°51'0 0.0
2016-May-23 08:32N 29°30' W 090°51'0 0.0
2016-May-23 07:32N 29°30' W 090°51'0 0.0
2016-May-23 06:33N 29°30' W 090°51'0 0.0
2016-May-23 05:32N 29°30' W 090°51'0 0.0
2016-May-23 04:27N 29°30' W 090°51'0 0.0
2016-May-23 03:32N 29°30' W 090°51'0 0.0
2016-May-23 02:25N 29°30' W 090°51'0 0.0
2016-May-23 01:33N 29°30' W 090°51'0 0.0
2016-May-23 00:29N 29°30' W 090°51'0 0.0
2016-May-22 23:33N 29°30' W 090°51'0 0.0
2016-May-22 22:29N 29°30' W 090°51'0 0.0
2016-May-22 21:33N 29°30' W 090°51'0 0.0
2016-May-22 11:26N 29°31' W 090°51'2 1.8
2016-May-22 10:34N 29°32' W 090°50'5 4.7
2016-May-22 09:34N 29°33' W 090°45'1 1.2
2016-May-22 08:34N 29°34' W 090°44'0 0.0
2016-May-22 07:34N 29°34' W 090°44'0 0.0
2016-May-22 06:34N 29°34' W 090°44'0 0.0
2016-May-22 05:34N 29°34' W 090°44'0 0.0
2016-May-22 04:33N 29°34' W 090°44'0 0.0
2016-May-22 03:34N 29°34' W 090°44'0 0.0
2016-May-22 02:33N 29°34' W 090°44'0 0.0
2016-May-22 01:34N 29°34' W 090°44'0 0.0
2016-May-22 00:34N 29°34' W 090°44'0 0.0
2016-May-21 23:34N 29°34' W 090°44'0 0.0
2016-May-21 22:33N 29°34' W 090°44'0 0.0
2016-May-21 21:33N 29°34' W 090°44'0 0.0
2016-May-21 20:33N 29°34' W 090°44'0 0.0
2016-May-21 19:33N 29°34' W 090°44'0 0.0
2016-May-21 18:34N 29°34' W 090°44'0 0.0
2016-May-21 17:33N 29°34' W 090°44'0 0.0
2016-May-21 16:33N 29°34' W 090°44'0 0.0
2016-May-21 15:33N 29°34' W 090°44'0 0.1
2016-May-21 14:33N 29°34' W 090°44'2 2.3
2016-May-21 13:33N 29°33' W 090°41'0 0.0
2016-May-21 12:33N 29°33' W 090°41'0 0.0
2016-May-21 11:33N 29°33' W 090°41'0 0.0
2016-May-21 10:33N 29°33' W 090°41'0 0.0
2016-May-21 09:33N 29°33' W 090°41'0 0.0
2016-May-21 08:33N 29°33' W 090°41'0 0.0
2016-May-21 07:33N 29°33' W 090°41'0 0.0
2016-May-21 06:33N 29°33' W 090°41'0 0.0
2016-May-21 05:33N 29°33' W 090°41'0 0.0
2016-May-21 04:33N 29°33' W 090°41'0 0.0
2016-May-21 03:33N 29°33' W 090°41'0 0.0
2016-May-21 02:33N 29°33' W 090°41'0 0.0
2016-May-21 01:33N 29°33' W 090°41'1 0.8
2016-May-21 00:33N 29°33' W 090°42'2 2.0
2016-May-20 23:33N 29°35' W 090°43'1 0.8
2016-May-20 22:33N 29°34' W 090°43'3 3.1
2016-May-20 21:33N 29°36' W 090°41'1 0.8
2016-May-20 20:31N 29°36' W 090°40'2 2.6
2016-May-20 19:33N 29°36' W 090°43'6 5.5
2016-May-20 18:33N 29°32' W 090°47'4 3.7
2016-May-20 17:33N 29°31' W 090°51'0 0.4
2016-May-20 16:31N 29°30' W 090°51'0 0.0
2016-May-20 15:30N 29°30' W 090°51'0 0.0
2016-May-20 11:10N 29°30' W 090°51'0 0.0
2016-May-20 02:11N 29°30' W 090°51'0 0.0
2016-May-20 01:32N 29°30' W 090°51'0 0.0
2016-May-20 00:31N 29°30' W 090°51'0 0.0
2016-May-19 23:30N 29°30' W 090°51'0 0.0
2016-May-19 22:32N 29°30' W 090°51'0 0.0
2016-May-19 21:33N 29°30' W 090°51'0 0.0
2016-May-19 20:31N 29°30' W 090°51'0 0.0
2016-May-19 19:32N 29°30' W 090°51'0 0.0
2016-May-19 18:33N 29°30' W 090°51'0 0.0
2016-May-19 17:23N 29°30' W 090°51'0 0.0
2016-May-19 16:33N 29°30' W 090°51'0 0.0
2016-May-19 11:33N 29°30' W 090°51'0 0.0
2016-May-19 10:25N 29°30' W 090°51'0 0.0
2016-May-19 09:12N 29°30' W 090°51'0 0.0
2016-May-19 08:29N 29°30' W 090°51'0 0.0
2016-May-19 05:31N 29°30' W 090°51'0 0.0
2016-May-19 03:32N 29°30' W 090°51'0 0.0
2016-May-19 02:24N 29°30' W 090°51'0 0.0
2016-May-19 01:33N 29°30' W 090°51'0 0.0
2016-May-19 00:33N 29°30' W 090°51'0 0.0
2016-May-18 20:33N 29°30' W 090°51'0 0.0
2016-May-18 19:25N 29°30' W 090°51'0 0.0
2016-May-18 18:32N 29°30' W 090°51'0 0.0
2016-May-18 17:28N 29°30' W 090°51'0 0.0
2016-May-18 16:32N 29°30' W 090°51'0 0.0
2016-May-18 15:12N 29°30' W 090°51'0 0.0
2016-May-18 14:31N 29°30' W 090°51'0 0.0
2016-May-18 13:33N 29°30' W 090°51'0 0.0
2016-May-18 12:33N 29°30' W 090°51'0 0.0
2016-May-18 11:33N 29°30' W 090°51'0 0.0
2016-May-18 10:33N 29°30' W 090°51'0 0.0
2016-May-18 09:31N 29°30' W 090°51'0 0.0
2016-May-18 08:32N 29°30' W 090°51'0 0.0
2016-May-18 07:30N 29°30' W 090°51'0 0.0
2016-May-18 06:31N 29°30' W 090°51'0 0.0
2016-May-18 04:24N 29°30' W 090°51'0 0.0
2016-May-18 03:33N 29°30' W 090°51'0 0.0
2016-May-18 02:32N 29°30' W 090°51'0 0.0
2016-May-18 01:33N 29°30' W 090°51'0 0.0
2016-May-18 00:23N 29°30' W 090°51'0 0.0
2016-May-17 23:31N 29°30' W 090°51'0 0.0
2016-May-17 22:33N 29°30' W 090°51'0 0.0
2016-May-17 20:23N 29°30' W 090°51'0 0.0
2016-May-17 17:32N 29°30' W 090°51'0 0.0
2016-May-16 21:24N 29°31' W 090°51'2 2.5
2016-May-16 20:33N 29°32' W 090°49'5 5.2
2016-May-16 19:34N 29°34' W 090°44'0 0.0
2016-May-16 18:33N 29°34' W 090°44'0 0.0
2016-May-16 17:33N 29°34' W 090°44'6 5.7
2016-May-16 16:33N 29°32' W 090°50'0 0.0
2016-May-14 20:26N 29°32' W 090°50'4 5.0
2016-May-14 19:34N 29°33' W 090°45'4 3.7
2016-May-14 18:33N 29°36' W 090°43'3 2.8
2016-May-14 17:33N 29°36' W 090°39'5 5.4
2016-May-14 16:33N 29°34' W 090°34'  
Track history (hours):
 
Tides and Currents Weather Stations Pressure Air Temp Water Temp Dewpoint Dewpoint Depression Visibility Wind Speed Wind Dir Waves Ship Positions

Paddy Guidry

Owner: CAPTAIN TIMMY INC, GALLIANO, LA. More information available from US FCC via Universal Licensing System and Coast Guard Vessel Documentation Center.

Last reported at 2016-May-24 15:29 UTC. Time now 2016-May-24 15:49 UTC.
Position N 29°30' W 090°51'.

; draft 1.5 m.

Type: Tug. MMSI: 366998310.

Date/timePositionNaut miles runAvg speedWind from/ knotsBaromVisibWave heightAir tempDewpointWater temp
2016-May-24 15:29N 29°30' W 090°51'0 0.1
2016-May-24 14:33N 29°30' W 090°51'0 0.0
2016-May-24 13:32N 29°30' W 090°51'3 0.1
2016-May-23 14:15N 29°32' W 090°53'1 1.8
2016-May-23 13:29N 29°32' W 090°52'1 1.5
2016-May-23 12:33N 29°30' W 090°51'0 0.0
2016-May-23 11:33N 29°30' W 090°51'0 0.0
2016-May-23 10:26N 29°30' W 090°51'0 0.0
2016-May-23 09:31N 29°30' W 090°51'0 0.0
2016-May-23 08:32N 29°30' W 090°51'0 0.0
2016-May-23 07:32N 29°30' W 090°51'0 0.0
2016-May-23 06:33N 29°30' W 090°51'0 0.0
2016-May-23 05:32N 29°30' W 090°51'0 0.0
2016-May-23 04:27N 29°30' W 090°51'0 0.0
2016-May-23 03:32N 29°30' W 090°51'0 0.0
2016-May-23 02:25N 29°30' W 090°51'0 0.0
2016-May-23 01:33N 29°30' W 090°51'0 0.0
2016-May-23 00:29N 29°30' W 090°51'0 0.0
2016-May-22 23:33N 29°30' W 090°51'0 0.0
2016-May-22 22:29N 29°30' W 090°51'0 0.0
2016-May-22 21:33N 29°30' W 090°51'0 0.0
2016-May-22 11:26N 29°31' W 090°51'2 1.8
2016-May-22 10:34N 29°32' W 090°50'5 4.7
2016-May-22 09:34N 29°33' W 090°45'1 1.2
2016-May-22 08:34N 29°34' W 090°44'0 0.0
2016-May-22 07:34N 29°34' W 090°44'0 0.0
2016-May-22 06:34N 29°34' W 090°44'0 0.0
2016-May-22 05:34N 29°34' W 090°44'0 0.0
2016-May-22 04:33N 29°34' W 090°44'0 0.0
2016-May-22 03:34N 29°34' W 090°44'0 0.0
2016-May-22 02:33N 29°34' W 090°44'0 0.0
2016-May-22 01:34N 29°34' W 090°44'0 0.0
2016-May-22 00:34N 29°34' W 090°44'0 0.0
2016-May-21 23:34N 29°34' W 090°44'0 0.0
2016-May-21 22:33N 29°34' W 090°44'0 0.0
2016-May-21 21:33N 29°34' W 090°44'0 0.0
2016-May-21 20:33N 29°34' W 090°44'0 0.0
2016-May-21 19:33N 29°34' W 090°44'0 0.0
2016-May-21 18:34N 29°34' W 090°44'0 0.0
2016-May-21 17:33N 29°34' W 090°44'0 0.0
2016-May-21 16:33N 29°34' W 090°44'0 0.0
2016-May-21 15:33N 29°34' W 090°44'0 0.1
2016-May-21 14:33N 29°34' W 090°44'2 2.3
2016-May-21 13:33N 29°33' W 090°41'0 0.0
2016-May-21 12:33N 29°33' W 090°41'0 0.0
2016-May-21 11:33N 29°33' W 090°41'0 0.0
2016-May-21 10:33N 29°33' W 090°41'0 0.0
2016-May-21 09:33N 29°33' W 090°41'0 0.0
2016-May-21 08:33N 29°33' W 090°41'0 0.0
2016-May-21 07:33N 29°33' W 090°41'0 0.0
2016-May-21 06:33N 29°33' W 090°41'0 0.0
2016-May-21 05:33N 29°33' W 090°41'0 0.0
2016-May-21 04:33N 29°33' W 090°41'0 0.0
2016-May-21 03:33N 29°33' W 090°41'0 0.0
2016-May-21 02:33N 29°33' W 090°41'0 0.0
2016-May-21 01:33N 29°33' W 090°41'1 0.8
2016-May-21 00:33N 29°33' W 090°42'2 2.0
2016-May-20 23:33N 29°35' W 090°43'1 0.8
2016-May-20 22:33N 29°34' W 090°43'3 3.1
2016-May-20 21:33N 29°36' W 090°41'1 0.8
2016-May-20 20:31N 29°36' W 090°40'2 2.6
2016-May-20 19:33N 29°36' W 090°43'6 5.5
2016-May-20 18:33N 29°32' W 090°47'4 3.7
2016-May-20 17:33N 29°31' W 090°51'0 0.4
2016-May-20 16:31N 29°30' W 090°51'0 0.0
2016-May-20 15:30N 29°30' W 090°51'0 0.0
2016-May-20 11:10N 29°30' W 090°51'0 0.0
2016-May-20 02:11N 29°30' W 090°51'0 0.0
2016-May-20 01:32N 29°30' W 090°51'0 0.0
2016-May-20 00:31N 29°30' W 090°51'0 0.0
2016-May-19 23:30N 29°30' W 090°51'0 0.0
2016-May-19 22:32N 29°30' W 090°51'0 0.0
2016-May-19 21:33N 29°30' W 090°51'0 0.0
2016-May-19 20:31N 29°30' W 090°51'0 0.0
2016-May-19 19:32N 29°30' W 090°51'0 0.0
2016-May-19 18:33N 29°30' W 090°51'0 0.0
2016-May-19 17:23N 29°30' W 090°51'0 0.0
2016-May-19 16:33N 29°30' W 090°51'0 0.0
2016-May-19 11:33N 29°30' W 090°51'0 0.0
2016-May-19 10:25N 29°30' W 090°51'0 0.0
2016-May-19 09:12N 29°30' W 090°51'0 0.0
2016-May-19 08:29N 29°30' W 090°51'0 0.0
2016-May-19 05:31N 29°30' W 090°51'0 0.0
2016-May-19 03:32N 29°30' W 090°51'0 0.0
2016-May-19 02:24N 29°30' W 090°51'0 0.0
2016-May-19 01:33N 29°30' W 090°51'0 0.0
2016-May-19 00:33N 29°30' W 090°51'0 0.0
2016-May-18 20:33N 29°30' W 090°51'0 0.0
2016-May-18 19:25N 29°30' W 090°51'0 0.0
2016-May-18 18:32N 29°30' W 090°51'0 0.0
2016-May-18 17:28N 29°30' W 090°51'0 0.0
2016-May-18 16:32N 29°30' W 090°51'0 0.0
2016-May-18 15:12N 29°30' W 090°51'0 0.0
2016-May-18 14:31N 29°30' W 090°51'0 0.0
2016-May-18 13:33N 29°30' W 090°51'0 0.0
2016-May-18 12:33N 29°30' W 090°51'0 0.0
2016-May-18 11:33N 29°30' W 090°51'0 0.0
2016-May-18 10:33N 29°30' W 090°51'0 0.0
2016-May-18 09:31N 29°30' W 090°51'0 0.0
2016-May-18 08:32N 29°30' W 090°51'0 0.0
2016-May-18 07:30N 29°30' W 090°51'0 0.0
2016-May-18 06:31N 29°30' W 090°51'0 0.0
2016-May-18 04:24N 29°30' W 090°51'0 0.0
2016-May-18 03:33N 29°30' W 090°51'0 0.0
2016-May-18 02:32N 29°30' W 090°51'0 0.0
2016-May-18 01:33N 29°30' W 090°51'0 0.0
2016-May-18 00:23N 29°30' W 090°51'0 0.0
2016-May-17 23:31N 29°30' W 090°51'0 0.0
2016-May-17 22:33N 29°30' W 090°51'0 0.0
2016-May-17 20:23N 29°30' W 090°51'0 0.0
2016-May-17 17:32N 29°30' W 090°51'0 0.0
2016-May-16 21:24N 29°31' W 090°51'2 2.5
2016-May-16 20:33N 29°32' W 090°49'5 5.2
2016-May-16 19:34N 29°34' W 090°44'0 0.0
2016-May-16 18:33N 29°34' W 090°44'0 0.0
2016-May-16 17:33N 29°34' W 090°44'6 5.7
2016-May-16 16:33N 29°32' W 090°50'0 0.0
2016-May-14 20:26N 29°32' W 090°50'4 5.0
2016-May-14 19:34N 29°33' W 090°45'4 3.7
2016-May-14 18:33N 29°36' W 090°43'3 2.8
2016-May-14 17:33N 29°36' W 090°39'5 5.4
2016-May-14 16:33N 29°34' W 090°34'  

Dump ship's entire track history